createdAt,value
2022-10-05T00:01:29.132Z,98.77
2022-10-05T00:04:24.190Z,99.23
2022-10-05T00:07:18.971Z,99.31
2022-10-05T00:10:16.293Z,99.05
2022-10-05T00:13:13.752Z,99.69
2022-10-05T00:16:10.833Z,99.76
2022-10-05T00:18:59.909Z,99.87
2022-10-05T00:21:48.064Z,99.85
2022-10-05T00:24:35.947Z,99.96
2022-10-05T00:27:27.390Z,99.94
2022-10-05T00:30:18.708Z,100.00
2022-10-05T00:33:06.143Z,100.00
2022-10-05T00:35:55.402Z,100.00
2022-10-05T00:38:43.950Z,100.00
2022-10-05T00:42:02.826Z,100.00
2022-10-05T00:45:07.792Z,100.00
2022-10-05T00:48:43.655Z,100.00
2022-10-05T00:51:37.194Z,100.00
2022-10-05T00:54:39.779Z,100.00
2022-10-05T00:58:03.294Z,100.00
2022-10-05T01:01:24.181Z,100.00
2022-10-05T01:04:35.713Z,100.00
2022-10-05T01:07:44.560Z,99.99
2022-10-05T01:10:35.461Z,100.00
2022-10-05T01:13:47.447Z,100.00
2022-10-05T01:16:59.422Z,100.00
2022-10-05T01:20:36.394Z,99.97
2022-10-05T01:24:01.636Z,99.86
2022-10-05T01:27:32.118Z,99.64
2022-10-05T01:30:22.225Z,99.80
2022-10-05T01:33:29.562Z,99.56
2022-10-05T01:36:41.764Z,99.81
2022-10-05T01:39:59.222Z,99.49
2022-10-05T01:43:05.460Z,99.69
2022-10-05T01:47:09.848Z,99.36
2022-10-05T01:50:11.504Z,99.78
2022-10-05T01:53:10.920Z,99.74
2022-10-05T01:56:09.998Z,99.53
2022-10-05T01:59:22.768Z,99.79
2022-10-05T02:02:17.153Z,99.90
2022-10-05T02:05:16.745Z,99.57
2022-10-05T02:08:15.842Z,99.90
2022-10-05T02:11:12.305Z,99.91
2022-10-05T02:14:12.356Z,100.00
2022-10-05T02:17:08.598Z,100.00
2022-10-05T02:20:07.626Z,100.00
2022-10-05T02:23:02.587Z,100.00
2022-10-05T02:25:55.352Z,100.00
2022-10-05T02:28:54.017Z,100.00
2022-10-05T02:31:52.917Z,100.00
2022-10-05T02:34:43.594Z,100.00
2022-10-05T02:37:58.913Z,100.00
2022-10-05T02:41:08.429Z,100.00
2022-10-05T02:44:21.967Z,100.00
2022-10-05T02:47:30.051Z,100.00
2022-10-05T02:50:31.647Z,100.00
2022-10-05T02:53:53.817Z,100.00
2022-10-05T02:57:10.346Z,100.00
2022-10-05T03:00:04.805Z,100.00
2022-10-05T03:03:30.303Z,100.00
2022-10-05T03:06:38.868Z,100.00
2022-10-05T03:09:34.376Z,100.00
2022-10-05T03:12:38.266Z,100.00
2022-10-05T03:15:39.390Z,100.00
2022-10-05T03:19:22.845Z,100.00
2022-10-05T03:22:58.054Z,100.00
2022-10-05T03:26:01.392Z,100.00
2022-10-05T03:29:29.950Z,100.00
2022-10-05T03:32:45.894Z,100.00
2022-10-05T03:36:01.573Z,100.00
2022-10-05T03:39:14.663Z,100.00
2022-10-05T03:42:56.023Z,100.00
2022-10-05T03:46:17.326Z,100.00
2022-10-05T03:49:15.923Z,100.00
2022-10-05T03:52:37.662Z,100.00
2022-10-05T03:55:44.251Z,100.00
2022-10-05T03:58:42.779Z,100.00
2022-10-05T04:02:06.771Z,100.00
2022-10-05T04:05:05.626Z,100.00
2022-10-05T04:08:08.223Z,100.00
2022-10-05T04:11:04.415Z,100.00
2022-10-05T04:14:12.849Z,100.00
2022-10-05T04:17:14.275Z,100.00
2022-10-05T04:20:27.275Z,100.00
2022-10-05T04:23:47.469Z,100.00
2022-10-05T04:26:57.789Z,100.00
2022-10-05T04:30:02.962Z,100.00
2022-10-05T04:32:58.002Z,100.00
2022-10-05T04:36:08.783Z,100.00
2022-10-05T04:39:25.917Z,100.00
2022-10-05T04:43:08.139Z,100.00
2022-10-05T04:46:33.087Z,99.95
2022-10-05T04:49:51.113Z,100.00
2022-10-05T04:53:12.066Z,99.76
2022-10-05T04:56:11.278Z,99.78
2022-10-05T04:59:54.668Z,99.60
2022-10-05T05:02:47.956Z,99.50
2022-10-05T05:06:17.178Z,99.29
2022-10-05T05:09:34.802Z,99.62
2022-10-05T05:13:05.714Z,99.53
2022-10-05T05:16:18.486Z,99.31
2022-10-05T05:19:31.380Z,99.10
2022-10-05T05:22:29.023Z,99.34
2022-10-05T05:25:40.171Z,98.86
2022-10-05T05:28:47.500Z,98.88
2022-10-05T05:32:13.540Z,98.36
2022-10-05T05:35:32.049Z,98.26
2022-10-05T05:38:44.772Z,97.85
2022-10-05T05:42:20.941Z,97.89
2022-10-05T05:45:33.740Z,97.12
2022-10-05T05:48:32.541Z,96.54
2022-10-05T05:51:44.153Z,95.88
2022-10-05T05:54:39.707Z,95.24
2022-10-05T05:58:00.749Z,94.79
2022-10-05T06:01:32.184Z,93.67
2022-10-05T06:04:36.845Z,92.48
2022-10-05T06:07:30.846Z,91.99
2022-10-05T06:10:41.603Z,91.38
2022-10-05T06:13:40.554Z,90.55
2022-10-05T06:17:06.836Z,90.23
2022-10-05T06:20:04.124Z,89.76
2022-10-05T06:23:02.275Z,89.74
2022-10-05T06:26:39.700Z,89.15
2022-10-05T06:29:50.922Z,88.80
2022-10-05T06:33:01.592Z,89.09
2022-10-05T06:36:07.195Z,88.59
2022-10-05T06:39:24.386Z,88.51
2022-10-05T06:42:40.530Z,88.05
2022-10-05T06:45:53.274Z,88.35
2022-10-05T06:49:46.931Z,88.80
2022-10-05T06:53:28.420Z,88.62
2022-10-05T06:57:01.315Z,88.56
2022-10-05T07:00:04.747Z,88.52
2022-10-05T07:03:28.372Z,87.77
2022-10-05T07:06:38.456Z,86.77
2022-10-05T07:09:32.846Z,86.38
2022-10-05T07:12:58.971Z,86.35
2022-10-05T07:16:05.305Z,86.38
2022-10-05T07:19:35.094Z,86.46
2022-10-05T07:22:31.717Z,86.44
2022-10-05T07:25:28.837Z,86.54
2022-10-05T07:28:35.664Z,86.61
2022-10-05T07:31:36.030Z,86.70
2022-10-05T07:34:58.704Z,87.01
2022-10-05T07:37:54.861Z,86.91
2022-10-05T07:40:54.467Z,86.83
2022-10-05T07:44:12.606Z,86.85
2022-10-05T07:47:15.611Z,86.63
2022-10-05T07:50:15.535Z,85.88
2022-10-05T07:53:19.186Z,85.80
2022-10-05T07:56:36.963Z,84.56
2022-10-05T07:59:38.903Z,83.61
2022-10-05T08:02:51.432Z,82.85
2022-10-05T08:05:44.956Z,82.55
2022-10-05T08:09:47.365Z,81.93
2022-10-05T08:13:19.192Z,80.54
2022-10-05T08:16:14.890Z,80.29
2022-10-05T08:19:40.591Z,80.02
2022-10-05T08:22:37.971Z,79.81
2022-10-05T08:25:45.013Z,79.32
2022-10-05T08:28:44.044Z,78.32
2022-10-05T08:31:37.403Z,77.72
2022-10-05T08:34:46.028Z,76.25
2022-10-05T08:37:40.228Z,74.19
2022-10-05T08:41:11.533Z,71.55
2022-10-05T08:44:17.563Z,68.28
2022-10-05T08:47:28.280Z,66.66
2022-10-05T08:50:31.968Z,67.04
2022-10-05T08:53:47.564Z,65.90
2022-10-05T08:57:05.829Z,65.93
2022-10-05T09:00:10.561Z,66.18
2022-10-05T09:03:34.774Z,66.03
2022-10-05T09:06:43.670Z,66.29
2022-10-05T09:09:49.414Z,67.18
2022-10-05T09:13:21.739Z,68.02
2022-10-05T09:16:53.143Z,68.76
2022-10-05T09:20:09.177Z,69.27
2022-10-05T09:23:26.986Z,69.53
2022-10-05T09:26:41.156Z,70.20
2022-10-05T09:29:47.801Z,70.11
2022-10-05T09:32:53.941Z,69.75
2022-10-05T09:36:03.365Z,68.85
2022-10-05T09:39:16.462Z,68.21
2022-10-05T09:43:28.294Z,68.05
2022-10-05T09:46:43.072Z,66.75
2022-10-05T09:49:58.752Z,65.82
2022-10-05T09:53:00.899Z,63.37
2022-10-05T09:56:15.527Z,62.82
2022-10-05T09:59:43.935Z,63.27
2022-10-05T10:02:56.217Z,63.90
2022-10-05T10:05:49.980Z,64.00
2022-10-05T10:09:07.838Z,64.40
2022-10-05T10:12:19.639Z,65.08
2022-10-05T10:15:43.048Z,65.60
2022-10-05T10:18:52.525Z,65.69
2022-10-05T10:22:33.016Z,65.19
2022-10-05T10:25:24.284Z,65.44
2022-10-05T10:28:40.173Z,64.93
2022-10-05T10:32:10.570Z,63.47
2022-10-05T10:35:42.211Z,61.31
2022-10-05T10:38:52.013Z,61.06
2022-10-05T10:42:01.038Z,59.36
2022-10-05T10:45:13.515Z,58.68
2022-10-05T10:48:11.126Z,58.31
2022-10-05T10:51:36.541Z,57.59
2022-10-05T10:55:05.601Z,57.68
2022-10-05T10:58:57.381Z,55.64
2022-10-05T11:02:22.555Z,55.30
2022-10-05T11:06:02.153Z,54.62
2022-10-05T11:09:24.116Z,55.16
2022-10-05T11:13:03.598Z,56.17
2022-10-05T11:16:36.640Z,56.66
2022-10-05T11:20:03.559Z,56.45
2022-10-05T11:23:18.329Z,56.94
2022-10-05T11:26:42.867Z,57.73
2022-10-05T11:30:02.635Z,58.00
2022-10-05T11:33:24.519Z,58.80
2022-10-05T11:36:53.470Z,59.23
2022-10-05T11:40:13.456Z,59.49
2022-10-05T11:43:38.377Z,60.03
2022-10-05T11:47:05.196Z,59.37
2022-10-05T11:49:59.413Z,59.89
2022-10-05T11:53:00.904Z,60.47
2022-10-05T11:56:13.966Z,59.87
2022-10-05T11:59:27.206Z,59.56
2022-10-05T12:02:47.032Z,59.65
2022-10-05T12:06:08.967Z,59.31
2022-10-05T12:09:18.716Z,59.90
2022-10-05T12:12:22.521Z,60.76
2022-10-05T12:15:29.769Z,60.74
2022-10-05T12:18:30.445Z,61.32
2022-10-05T12:21:56.742Z,61.93
2022-10-05T12:25:02.921Z,62.38
2022-10-05T12:27:57.265Z,62.85
2022-10-05T12:31:08.828Z,63.29
2022-10-05T12:34:04.383Z,63.67
2022-10-05T12:37:38.643Z,63.72
2022-10-05T12:40:52.423Z,63.34
2022-10-05T12:43:53.920Z,63.28
2022-10-05T12:46:44.066Z,63.28
2022-10-05T12:49:44.198Z,62.97
2022-10-05T12:53:23.526Z,62.60
2022-10-05T12:56:50.307Z,62.37
2022-10-05T13:00:00.345Z,62.46
2022-10-05T13:02:55.285Z,62.12
2022-10-05T13:06:07.566Z,61.82
2022-10-05T13:09:11.438Z,61.75
2022-10-05T13:12:13.944Z,62.17
2022-10-05T13:15:14.362Z,62.44
2022-10-05T13:18:25.356Z,62.56
2022-10-05T13:21:30.163Z,62.83
2022-10-05T13:24:34.790Z,63.24
2022-10-05T13:27:29.614Z,63.71
2022-10-05T13:30:21.049Z,63.91
2022-10-05T13:33:33.466Z,64.16
2022-10-05T13:36:46.099Z,64.45
2022-10-05T13:40:03.879Z,64.80
2022-10-05T13:43:06.318Z,64.98
2022-10-05T13:46:28.671Z,64.93
2022-10-05T13:49:23.750Z,65.06
2022-10-05T13:52:37.812Z,65.38
2022-10-05T13:55:49.837Z,65.76
2022-10-05T13:59:20.315Z,66.05
2022-10-05T14:02:42.804Z,66.40
2022-10-05T14:05:31.917Z,66.58
2022-10-05T14:08:19.663Z,66.71
2022-10-05T14:11:36.928Z,67.06
2022-10-05T14:14:31.820Z,67.33
2022-10-05T14:17:43.609Z,67.86
2022-10-05T14:20:34.567Z,68.34
2022-10-05T14:23:27.278Z,68.71
2022-10-05T14:26:33.054Z,68.97
2022-10-05T14:29:35.385Z,69.43
2022-10-05T14:32:25.894Z,69.73
2022-10-05T14:35:17.507Z,69.99
2022-10-05T14:38:30.241Z,70.33
2022-10-05T14:41:22.723Z,70.57
2022-10-05T14:44:13.510Z,71.13
2022-10-05T14:47:20.457Z,71.31
2022-10-05T14:50:26.438Z,71.90
2022-10-05T14:53:18.861Z,72.35
2022-10-05T14:56:40.615Z,72.73
2022-10-05T15:00:12.501Z,73.17
2022-10-05T15:03:19.624Z,73.33
2022-10-05T15:06:21.581Z,73.48
2022-10-05T15:09:53.898Z,73.79
2022-10-05T15:12:48.875Z,73.93
2022-10-05T15:15:50.257Z,74.39
2022-10-05T15:18:57.668Z,74.72
2022-10-05T15:22:19.017Z,74.75
2022-10-05T15:25:26.956Z,75.50
2022-10-05T15:28:40.725Z,75.73
2022-10-05T15:31:40.804Z,76.33
2022-10-05T15:34:41.583Z,76.85
2022-10-05T15:37:53.814Z,77.14
2022-10-05T15:40:55.101Z,77.66
2022-10-05T15:44:15.078Z,77.73
2022-10-05T15:47:14.339Z,78.60
2022-10-05T15:50:22.607Z,79.05
2022-10-05T15:53:27.022Z,79.41
2022-10-05T15:56:36.379Z,79.68
2022-10-05T15:59:54.365Z,80.11
2022-10-05T16:03:33.198Z,80.74
2022-10-05T16:06:45.566Z,81.23
2022-10-05T16:09:45.461Z,81.51
2022-10-05T16:13:05.164Z,81.71
2022-10-05T16:16:21.065Z,81.94
2022-10-05T16:19:42.083Z,82.57
2022-10-05T16:22:59.819Z,82.95
2022-10-05T16:26:45.520Z,83.52
2022-10-05T16:29:47.625Z,84.00
2022-10-05T16:32:46.429Z,83.83
2022-10-05T16:35:43.027Z,84.78
2022-10-05T16:38:59.253Z,85.30
2022-10-05T16:42:21.626Z,85.30
2022-10-05T16:45:51.859Z,86.18
2022-10-05T16:48:58.941Z,86.98
2022-10-05T16:52:20.512Z,88.62
2022-10-05T16:55:51.327Z,88.52
2022-10-05T16:59:20.307Z,89.42
2022-10-05T17:02:52.092Z,89.97
2022-10-05T17:05:59.081Z,89.94
2022-10-05T17:09:18.315Z,90.55
2022-10-05T17:12:31.318Z,90.66
2022-10-05T17:15:48.225Z,91.88
2022-10-05T17:19:19.783Z,92.21
2022-10-05T17:22:26.760Z,92.32
2022-10-05T17:26:06.765Z,92.70
2022-10-05T17:29:47.746Z,93.60
2022-10-05T17:32:55.195Z,93.80
2022-10-05T17:36:13.095Z,94.76
2022-10-05T17:39:22.517Z,94.96
2022-10-05T17:42:34.624Z,95.06
2022-10-05T17:45:34.611Z,94.94
2022-10-05T17:48:54.490Z,94.99
2022-10-05T17:52:00.956Z,95.65
2022-10-05T17:55:07.374Z,95.75
2022-10-05T17:57:59.928Z,95.86
2022-10-05T18:01:01.670Z,96.74
2022-10-05T18:03:51.790Z,96.90
2022-10-05T18:07:31.055Z,97.03
2022-10-05T18:10:29.296Z,97.18
2022-10-05T18:13:48.414Z,97.56
2022-10-05T18:17:11.832Z,97.75
2022-10-05T18:20:31.744Z,97.75
2022-10-05T18:23:24.015Z,98.04
2022-10-05T18:26:57.497Z,97.94
2022-10-05T18:30:25.845Z,98.93
2022-10-05T18:33:43.253Z,99.51
2022-10-05T18:37:10.783Z,99.38
2022-10-05T18:40:51.438Z,99.66
2022-10-05T18:44:21.792Z,99.49
2022-10-05T18:47:23.231Z,99.73
2022-10-05T18:50:34.025Z,100.00
2022-10-05T18:53:47.750Z,100.00
2022-10-05T18:56:45.661Z,100.00
2022-10-05T18:59:55.030Z,100.00
2022-10-05T19:03:04.677Z,100.00
2022-10-05T19:06:30.071Z,100.00
2022-10-05T19:09:56.279Z,100.00
2022-10-05T19:13:20.787Z,100.00
2022-10-05T19:16:57.659Z,100.00
2022-10-05T19:20:17.649Z,99.95
2022-10-05T19:23:33.692Z,100.00
2022-10-05T19:26:50.165Z,100.00
2022-10-05T19:30:24.198Z,100.00
2022-10-05T19:33:36.221Z,100.00
2022-10-05T19:36:44.119Z,100.00
2022-10-05T19:39:58.793Z,100.00
2022-10-05T19:43:19.521Z,100.00
2022-10-05T19:46:38.024Z,100.00
2022-10-05T19:50:18.859Z,100.00
2022-10-05T19:53:37.307Z,100.00
2022-10-05T19:56:46.086Z,100.00
2022-10-05T19:59:34.913Z,100.00
2022-10-05T20:02:27.218Z,100.00
2022-10-05T20:05:15.604Z,100.00
2022-10-05T20:08:06.229Z,100.00
2022-10-05T20:11:11.880Z,100.00
2022-10-05T20:14:02.504Z,100.00
2022-10-05T20:17:44.727Z,100.00
2022-10-05T20:20:43.264Z,100.00
2022-10-05T20:23:33.955Z,100.00
2022-10-05T20:27:05.202Z,100.00
2022-10-05T20:29:53.376Z,100.00
2022-10-05T20:32:41.812Z,100.00
2022-10-05T20:35:30.996Z,100.00
2022-10-05T20:38:18.853Z,100.00
2022-10-05T20:41:06.764Z,100.00
2022-10-05T20:43:55.961Z,100.00
2022-10-05T20:46:46.687Z,100.00
2022-10-05T20:49:37.519Z,100.00
2022-10-05T20:52:25.908Z,100.00
2022-10-05T20:55:14.722Z,100.00
2022-10-05T20:58:02.297Z,100.00
2022-10-05T21:01:08.840Z,100.00
2022-10-05T21:03:56.771Z,100.00
2022-10-05T21:06:45.957Z,100.00
2022-10-05T21:09:34.146Z,100.00
2022-10-05T21:12:21.747Z,100.00
2022-10-05T21:15:10.675Z,100.00
2022-10-05T21:17:58.499Z,100.00
2022-10-05T21:20:48.089Z,100.00
2022-10-05T21:23:36.708Z,100.00
2022-10-05T21:26:24.405Z,100.00
2022-10-05T21:29:13.181Z,100.00
2022-10-05T21:32:01.482Z,100.00
2022-10-05T21:34:50.106Z,100.00
2022-10-05T21:37:38.243Z,100.00
2022-10-05T21:40:26.218Z,99.97
2022-10-05T21:43:14.625Z,100.00
2022-10-05T21:46:02.969Z,100.00
2022-10-05T21:48:50.991Z,99.92
2022-10-05T21:51:40.163Z,99.64
2022-10-05T21:54:28.851Z,99.58
2022-10-05T21:57:16.894Z,99.54
2022-10-05T22:00:08.732Z,99.75
2022-10-05T22:02:56.896Z,99.82
2022-10-05T22:05:44.684Z,99.51
2022-10-05T22:08:34.578Z,99.94
2022-10-05T22:11:23.029Z,99.71
2022-10-05T22:14:14.712Z,99.72
2022-10-05T22:17:02.908Z,99.87
2022-10-05T22:19:51.476Z,99.89
2022-10-05T22:22:39.159Z,99.95
2022-10-05T22:25:26.998Z,99.75
2022-10-05T22:28:16.873Z,99.81
2022-10-05T22:31:07.979Z,99.57
2022-10-05T22:33:55.939Z,99.85
2022-10-05T22:36:43.951Z,99.77
2022-10-05T22:39:31.621Z,99.84
2022-10-05T22:42:19.617Z,99.65
2022-10-05T22:45:08.961Z,99.93
2022-10-05T22:47:56.376Z,99.34
2022-10-05T22:50:45.741Z,99.48
2022-10-05T22:53:34.911Z,99.33
2022-10-05T22:56:22.897Z,99.04
2022-10-05T22:59:11.087Z,98.95
2022-10-05T23:01:58.894Z,98.24
2022-10-05T23:04:47.067Z,98.33
2022-10-05T23:07:40.860Z,98.42
2022-10-05T23:10:29.105Z,98.23
2022-10-05T23:13:17.128Z,98.67
2022-10-05T23:16:21.417Z,98.40
2022-10-05T23:19:09.256Z,98.55
2022-10-05T23:21:57.287Z,98.60
2022-10-05T23:24:45.337Z,98.94
2022-10-05T23:27:41.487Z,98.88
2022-10-05T23:30:29.783Z,99.01
2022-10-05T23:33:17.421Z,98.88
2022-10-05T23:36:15.716Z,99.23
2022-10-05T23:39:03.733Z,99.13
2022-10-05T23:41:51.234Z,99.05
2022-10-05T23:44:39.198Z,98.86
2022-10-05T23:47:27.220Z,99.48
2022-10-05T23:50:15.598Z,99.62
2022-10-05T23:53:04.635Z,99.49
2022-10-05T23:55:54.126Z,99.57
2022-10-05T23:58:42.110Z,99.61
